LEIB/IBZ METAR and TAF weather

Enter ICAO airport designator
Station Type Date Time Source
LEIB METAR 2023/01/29 19:30 UTC NOAA

LEIB 291930Z 04005KT 9999 FEW035 FEW045TCU 06/03 Q1025 NOSIG


Station Type Date Time Source
LEIB Decoded METAR 2023/01/29 19:30 UTC NOAA

Ibiza / Es Codola, Spain (LEIB) 38-52N 001-23E 12M
Jan 29, 2023 - 02:30 PM EST / 2023.01.29 1930 UTC
Wind: from the NE (040 degrees) at 6 MPH (5 KT):0
Visibility: greater than 7 mile(s):0
Sky conditions: mostly clear
Weather: Towering cumulus clouds observed
Temperature: 42 F (6 C)
Dew Point: 37 F (3 C)
Relative Humidity: 81%
Pressure (altimeter): 30.27 in. Hg (1025 hPa)
ob: LEIB 291930Z 04005KT 9999 FEW035 FEW045TCU 06/03 Q1025 NOSIG
cycle: 19

Station Type Date Time Source
LEIB TAF 2023/01/29 15:30 UTC NOAA

TAF LEIB 291400Z 2915/3015 04013KT 9999 FEW020 TX10/3012Z TN06/3005Z
TEMPO 2915/2918 04015G25KT
BECMG 2918/2920 01007KT PROB30
TEMPO 2923/3005 SHRA FEW030TCU

Example: see airport list